Time;durP1;ratioP1;P1;durP2;ratioP2;P2;SDS_P1;SDS_P2;PMS_P1;PMS_P2;Temp;Humidity;BMP_temperature;BMP_pressure;BME280_temperature;BME280_humidity;BME280_pressure;Samples;Min_cycle;Max_cycle;Signal;HPM_P1;HPM_P2
2023/02/05 00:00:12;;;;;;;9.77;5.60;;;8.60;96.70;;;;;;4985832;28;20050;-76
2023/02/05 00:02:40;;;;;;;8.93;5.40;;;8.60;96.70;;;;;;4980833;28;20486;-76
2023/02/05 00:05:09;;;;;;;10.50;5.35;;;8.70;96.70;;;;;;4976158;28;20097;-76
2023/02/05 00:07:37;;;;;;;10.48;5.78;;;8.70;96.70;;;;;;4975045;28;20055;-76
2023/02/05 00:10:06;;;;;;;8.52;5.32;;;8.70;96.70;;;;;;4971778;28;20129;-76
2023/02/05 00:12:34;;;;;;;7.32;5.13;;;8.70;96.70;;;;;;4976034;28;20104;-76
2023/02/05 00:15:02;;;;;;;8.20;5.53;;;8.60;96.70;;;;;;4978667;28;20132;-76
2023/02/05 00:17:34;;;;;;;10.63;5.82;;;8.60;96.70;;;;;;4977384;28;20058;-76
2023/02/05 00:20:04;;;;;;;10.55;5.82;;;8.50;96.70;;;;;;4959936;28;20167;-76
2023/02/05 00:22:32;;;;;;;13.82;6.57;;;8.50;96.70;;;;;;4977515;28;20427;-76
2023/02/05 00:25:00;;;;;;;11.02;6.50;;;8.50;96.70;;;;;;4974376;28;20049;-76
2023/02/05 00:27:29;;;;;;;12.63;7.05;;;8.50;96.70;;;;;;4977123;28;20053;-76
2023/02/05 00:29:57;;;;;;;12.18;6.85;;;8.40;96.70;;;;;;4963782;28;20049;-76
2023/02/05 00:32:25;;;;;;;12.93;6.65;;;8.40;96.70;;;;;;4979482;28;20062;-77
2023/02/05 00:34:55;;;;;;;11.02;6.55;;;8.50;96.70;;;;;;4976128;28;20047;-77
2023/02/05 00:37:23;;;;;;;7.82;6.38;;;8.50;96.70;;;;;;4977791;28;20093;-72
2023/02/05 00:39:51;;;;;;;10.38;6.88;;;8.40;96.70;;;;;;4976070;28;20043;-72
2023/02/05 00:42:20;;;;;;;12.63;7.22;;;8.40;96.70;;;;;;4976634;28;20034;-72
2023/02/05 00:44:48;;;;;;;13.80;7.55;;;8.40;96.70;;;;;;4963311;28;20206;-72
2023/02/05 00:47:16;;;;;;;11.45;6.50;;;8.40;96.70;;;;;;4977207;28;20132;-71
2023/02/05 00:49:44;;;;;;;9.75;6.78;;;8.40;96.70;;;;;;4956270;28;20052;-72
2023/02/05 00:52:14;;;;;;;9.35;6.80;;;8.40;96.70;;;;;;4976954;28;20043;-72
2023/02/05 00:54:42;;;;;;;14.93;8.90;;;8.30;96.70;;;;;;4972843;28;20050;-73
2023/02/05 00:57:12;;;;;;;10.60;7.38;;;8.30;96.70;;;;;;4975958;28;20049;-73
2023/02/05 00:59:41;;;;;;;11.13;7.22;;;8.10;96.70;;;;;;4974406;28;20051;-72
2023/02/05 01:02:09;;;;;;;16.33;8.93;;;8.00;96.70;;;;;;4974138;28;20050;-72
2023/02/05 01:04:37;;;;;;;19.70;10.77;;;8.10;96.70;;;;;;4972448;28;20051;-72
2023/02/05 01:07:05;;;;;;;14.85;9.00;;;8.10;96.70;;;;;;4975128;28;20565;-73
2023/02/05 01:09:35;;;;;;;14.07;7.78;;;8.00;96.70;;;;;;4976723;28;20050;-72
2023/02/05 01:12:04;;;;;;;10.45;6.55;;;8.00;96.70;;;;;;4976546;28;20053;-73
2023/02/05 01:14:32;;;;;;;10.18;6.85;;;7.90;96.70;;;;;;4974176;28;20595;-71
2023/02/05 01:17:00;;;;;;;12.57;7.28;;;7.50;96.70;;;;;;4973391;28;20042;-72
2023/02/05 01:19:28;;;;;;;11.25;7.30;;;7.40;96.70;;;;;;4971446;28;20074;-72
2023/02/05 01:21:56;;;;;;;10.85;6.68;;;7.50;96.70;;;;;;4979046;28;20421;-70
2023/02/05 01:24:25;;;;;;;10.23;6.82;;;7.70;96.70;;;;;;4973521;28;20154;-72
2023/02/05 01:26:57;;;;;;;8.70;6.13;;;7.70;96.70;;;;;;4976016;28;20125;-72
2023/02/05 01:29:25;;;;;;;8.75;6.18;;;7.70;96.70;;;;;;4974171;28;20051;-72
2023/02/05 01:31:56;;;;;;;8.85;6.40;;;7.70;96.70;;;;;;4970166;28;20046;-73
2023/02/05 01:34:25;;;;;;;9.82;6.78;;;7.70;96.70;;;;;;4972925;28;20417;-72
2023/02/05 01:36:54;;;;;;;8.52;6.03;;;7.70;96.70;;;;;;4973643;28;20074;-73
2023/02/05 01:39:22;;;;;;;7.40;5.57;;;7.70;96.70;;;;;;4979500;28;20337;-72
2023/02/05 01:41:50;;;;;;;10.63;5.97;;;7.70;96.70;;;;;;4978141;28;20042;-72
2023/02/05 01:44:23;;;;;;;9.10;6.43;;;7.60;96.70;;;;;;4974934;28;20042;-72
2023/02/05 01:46:53;;;;;;;11.43;7.43;;;7.70;96.70;;;;;;4971539;28;20047;-73
2023/02/05 01:49:25;;;;;;;9.23;6.88;;;7.70;96.70;;;;;;4971926;28;20784;-72
2023/02/05 01:51:58;;;;;;;10.50;6.38;;;7.60;96.70;;;;;;4979383;28;20501;-76
2023/02/05 01:54:28;;;;;;;8.75;5.78;;;7.60;96.70;;;;;;4981467;28;20050;-72
2023/02/05 01:57:02;;;;;;;9.15;5.82;;;7.70;96.70;;;;;;4975723;28;20069;-72
2023/02/05 01:59:35;;;;;;;10.38;5.95;;;7.60;96.70;;;;;;4974395;28;20280;-72
2023/02/05 02:02:06;;;;;;;7.75;5.90;;;7.60;96.70;;;;;;4980079;28;20061;-73
2023/02/05 02:04:38;;;;;;;10.90;8.45;;;7.40;96.70;;;;;;4971005;28;20050;-73
2023/02/05 02:07:09;;;;;;;17.70;11.65;;;7.30;96.70;;;;;;4975766;28;20130;-73
2023/02/05 02:09:39;;;;;;;13.70;9.38;;;7.20;96.70;;;;;;4975865;28;20035;-73
2023/02/05 02:12:09;;;;;;;14.43;10.73;;;7.00;96.70;;;;;;4973826;28;20137;-73
2023/02/05 02:14:41;;;;;;;14.73;9.48;;;7.00;96.70;;;;;;4971173;28;20062;-73
2023/02/05 02:17:11;;;;;;;13.77;10.32;;;7.20;96.70;;;;;;4958559;28;20066;-73
2023/02/05 02:19:44;;;;;;;16.80;11.77;;;7.30;96.70;;;;;;4974953;28;20085;-72
2023/02/05 02:22:33;;;;;;;13.70;9.75;;;7.10;96.70;;;;;;4975737;28;20046;-73
2023/02/05 02:25:29;;;;;;;17.77;9.90;;;7.10;96.70;;;;;;4971333;28;20594;-72
2023/02/05 02:28:03;;;;;;;15.45;10.68;;;7.00;96.70;;;;;;4973710;28;20065;-73
2023/02/05 02:30:38;;;;;;;14.75;8.80;;;7.10;96.70;;;;;;4972775;28;20467;-73
2023/02/05 02:33:13;;;;;;;12.05;8.55;;;7.20;96.70;;;;;;4972388;28;20050;-73
2023/02/05 02:35:46;;;;;;;13.43;7.57;;;7.20;96.70;;;;;;4974851;28;20566;-74
2023/02/05 02:38:21;;;;;;;9.85;7.72;;;7.30;96.70;;;;;;4976375;28;20078;-73
2023/02/05 02:40:53;;;;;;;11.55;7.63;;;7.40;96.70;;;;;;4976625;28;20052;-74
2023/02/05 02:43:31;;;;;;;9.70;6.72;;;7.40;96.70;;;;;;4973492;28;20064;-72
2023/02/05 02:46:03;;;;;;;8.00;5.60;;;7.40;96.70;;;;;;4975005;28;20049;-73
2023/02/05 02:48:34;;;;;;;8.60;6.35;;;7.30;96.70;;;;;;4978287;28;20046;-73
2023/02/05 02:51:05;;;;;;;10.35;7.05;;;7.10;96.70;;;;;;4977070;28;20046;-73
2023/02/05 02:53:37;;;;;;;9.10;6.30;;;7.00;96.70;;;;;;4975899;28;20054;-72
2023/02/05 02:56:06;;;;;;;12.55;6.70;;;7.10;96.70;;;;;;4975121;28;20047;-73
2023/02/05 02:58:42;;;;;;;8.65;6.18;;;7.20;96.70;;;;;;4956619;28;20058;-73
2023/02/05 03:01:11;;;;;;;8.70;6.18;;;7.10;96.70;;;;;;4955361;28;20402;-73
2023/02/05 03:03:44;;;;;;;7.53;5.57;;;7.20;96.70;;;;;;4953410;28;20047;-72
2023/02/05 03:06:14;;;;;;;8.05;5.63;;;7.10;96.70;;;;;;4977911;28;20116;-71
2023/02/05 03:08:49;;;;;;;7.95;5.40;;;7.10;96.70;;;;;;4971587;28;20105;-71
2023/02/05 03:11:17;;;;;;;7.13;4.82;;;7.20;96.70;;;;;;4956380;28;20133;-72
2023/02/05 03:13:47;;;;;;;8.50;4.88;;;7.20;96.70;;;;;;4973605;28;20404;-71
2023/02/05 03:16:20;;;;;;;6.35;3.72;;;7.20;96.70;;;;;;4976030;28;20065;-71
2023/02/05 03:18:49;;;;;;;7.20;4.25;;;7.10;96.70;;;;;;4965979;28;20057;-71
2023/02/05 03:21:19;;;;;;;9.05;4.57;;;7.00;96.70;;;;;;4972392;28;20448;-72
2023/02/05 03:23:48;;;;;;;7.85;4.90;;;6.90;96.70;;;;;;4972230;28;20054;-73
2023/02/05 03:26:24;;;;;;;10.02;4.50;;;6.80;96.70;;;;;;4974477;28;20042;-71
2023/02/05 03:29:02;;;;;;;7.95;5.05;;;6.50;96.70;;;;;;4974761;28;20140;-72
2023/02/05 03:31:37;;;;;;;13.50;7.47;;;6.20;96.70;;;;;;4978159;28;20851;-71
2023/02/05 03:34:15;;;;;;;12.80;7.03;;;6.00;96.70;;;;;;4970747;28;20035;-71
2023/02/05 03:36:57;;;;;;;13.90;7.80;;;5.90;96.70;;;;;;4976562;28;20156;-72
2023/02/05 03:39:35;;;;;;;11.05;6.43;;;6.20;96.70;;;;;;4978106;28;20991;-72
2023/02/05 03:42:14;;;;;;;8.15;4.55;;;6.50;96.70;;;;;;4971474;28;20610;-72
2023/02/05 03:45:03;;;;;;;7.68;4.05;;;6.50;96.70;;;;;;4972596;28;20082;-72
2023/02/05 03:47:54;;;;;;;8.90;4.28;;;6.50;96.70;;;;;;4970424;28;20137;-72
2023/02/05 03:50:29;;;;;;;6.70;4.38;;;6.60;96.70;;;;;;4975651;28;20050;-72
2023/02/05 03:53:07;;;;;;;7.95;4.05;;;6.70;96.70;;;;;;4979455;28;20540;-71
2023/02/05 03:55:44;;;;;;;8.18;4.13;;;6.70;96.70;;;;;;4970778;28;20052;-71
2023/02/05 03:58:18;;;;;;;8.68;4.10;;;6.60;96.70;;;;;;4970483;28;20078;-72
2023/02/05 04:00:48;;;;;;;5.63;3.72;;;6.60;96.70;;;;;;4971230;28;20459;-71
2023/02/05 04:03:18;;;;;;;6.65;3.95;;;6.60;96.70;;;;;;4977397;28;20066;-72
2023/02/05 04:05:46;;;;;;;8.40;4.22;;;6.60;96.70;;;;;;4975150;28;20054;-76
2023/02/05 04:08:15;;;;;;;6.18;3.92;;;6.50;96.70;;;;;;4977264;28;20058;-76
2023/02/05 04:10:47;;;;;;;6.88;3.47;;;6.50;96.70;;;;;;4962029;28;20070;-76
2023/02/05 04:13:16;;;;;;;4.43;2.95;;;6.40;96.70;;;;;;4972330;28;20046;-76
2023/02/05 04:15:44;;;;;;;5.00;2.65;;;6.40;96.70;;;;;;4969169;28;20050;-77
2023/02/05 04:18:17;;;;;;;5.85;3.13;;;6.50;96.70;;;;;;4974571;28;20046;-75
2023/02/05 04:20:48;;;;;;;5.70;2.55;;;6.40;96.70;;;;;;4971223;28;20522;-76
2023/02/05 04:23:19;;;;;;;6.55;2.92;;;6.40;96.70;;;;;;4972912;28;20085;-77
2023/02/05 04:25:52;;;;;;;5.55;2.67;;;6.30;96.70;;;;;;4972856;28;20055;-76
2023/02/05 04:28:25;;;;;;;5.88;2.53;;;6.30;96.70;;;;;;4969373;28;20114;-76
2023/02/05 04:30:53;;;;;;;5.40;2.50;;;6.30;96.70;;;;;;4956442;28;20347;-76
2023/02/05 04:33:23;;;;;;;4.35;2.53;;;6.30;96.70;;;;;;4972623;28;20038;-76
2023/02/05 04:35:56;;;;;;;4.85;2.22;;;6.10;96.70;;;;;;4974271;28;20157;-76
2023/02/05 04:38:24;;;;;;;3.80;2.10;;;6.20;96.70;;;;;;4976939;28;20038;-77
2023/02/05 04:40:53;;;;;;;5.15;1.95;;;6.20;96.70;;;;;;4957175;28;20061;-76
2023/02/05 04:43:21;;;;;;;7.88;2.05;;;6.30;96.70;;;;;;4972919;28;20146;-76
2023/02/05 04:45:49;;;;;;;3.85;2.03;;;6.20;96.70;;;;;;4976684;28;20035;-76
2023/02/05 04:48:20;;;;;;;6.20;2.10;;;6.20;96.70;;;;;;4963707;28;20042;-76
2023/02/05 04:50:49;;;;;;;5.43;2.15;;;6.20;96.70;;;;;;4977387;28;20046;-75
2023/02/05 04:53:21;;;;;;;6.43;2.15;;;6.20;96.70;;;;;;4976477;28;20121;-76
2023/02/05 04:55:49;;;;;;;4.10;1.75;;;6.20;96.70;;;;;;4976305;28;20046;-75
2023/02/05 04:58:17;;;;;;;4.90;1.85;;;6.20;96.70;;;;;;4975965;28;20065;-76
2023/02/05 05:00:45;;;;;;;3.45;2.05;;;6.20;96.70;;;;;;4968551;28;20133;-75
2023/02/05 05:03:13;;;;;;;2.88;1.67;;;6.20;96.70;;;;;;4958214;28;20043;-76
2023/02/05 05:05:41;;;;;;;2.88;1.70;;;6.10;96.70;;;;;;4974818;28;20621;-76
2023/02/05 05:08:10;;;;;;;4.38;1.75;;;6.00;96.70;;;;;;4974940;28;20058;-76
2023/02/05 05:10:38;;;;;;;5.65;1.70;;;5.90;96.70;;;;;;4961395;28;20046;-76
2023/02/05 05:13:06;;;;;;;3.40;1.90;;;5.90;96.70;;;;;;4970363;28;20047;-76
2023/02/05 05:15:34;;;;;;;4.28;2.28;;;6.00;96.70;;;;;;4979224;28;20129;-75
2023/02/05 05:18:03;;;;;;;6.70;2.50;;;6.10;96.70;;;;;;4976973;28;20132;-76
2023/02/05 05:20:31;;;;;;;6.25;2.20;;;6.00;96.70;;;;;;4964418;28;20050;-76
2023/02/05 05:23:00;;;;;;;4.55;2.33;;;5.90;96.70;;;;;;4978985;28;20074;-71
2023/02/05 05:25:29;;;;;;;6.57;2.60;;;5.80;96.70;;;;;;4977262;28;20049;-72
2023/02/05 05:27:57;;;;;;;4.32;2.15;;;5.90;96.70;;;;;;4985019;28;20050;-76
2023/02/05 05:30:25;;;;;;;4.25;1.90;;;5.90;96.70;;;;;;4984169;28;20042;-76
2023/02/05 05:32:53;;;;;;;4.80;2.10;;;5.70;96.70;;;;;;4984391;28;20398;-76
2023/02/05 05:35:21;;;;;;;4.45;2.38;;;5.70;96.70;;;;;;4984476;28;20937;-76
2023/02/05 05:37:49;;;;;;;5.57;2.42;;;5.80;96.70;;;;;;4982238;28;20046;-77
2023/02/05 05:45:52;;;;;;;2.90;1.95;;;5.60;96.70;;;;;;4983596;28;20122;-75
2023/02/05 05:48:20;;;;;;;6.80;2.40;;;5.50;96.70;;;;;;4979309;28;20049;-76
2023/02/05 05:50:47;;;;;;;5.90;3.10;;;5.50;96.70;;;;;;4985102;28;20050;-76
2023/02/05 05:53:15;;;;;;;4.22;2.05;;;5.40;96.70;;;;;;4981070;28;20073;-77
2023/02/05 05:55:43;;;;;;;3.05;2.05;;;5.40;96.70;;;;;;4984786;28;20489;-77
2023/02/05 05:58:13;;;;;;;5.50;2.08;;;5.40;96.70;;;;;;4969184;28;20140;-76
2023/02/05 06:00:41;;;;;;;4.22;2.10;;;5.50;96.70;;;;;;4982010;28;20505;-76
2023/02/05 06:03:10;;;;;;;5.25;1.90;;;5.60;96.70;;;;;;4983566;28;20046;-75
2023/02/05 06:05:38;;;;;;;6.38;2.25;;;5.50;96.70;;;;;;4984999;28;20305;-76
2023/02/05 06:08:06;;;;;;;5.22;1.80;;;5.40;96.70;;;;;;4985059;28;20054;-76
2023/02/05 06:10:34;;;;;;;3.88;1.90;;;5.50;96.70;;;;;;4984784;28;20520;-77
2023/02/05 06:13:01;;;;;;;2.30;1.38;;;5.40;96.70;;;;;;4983738;28;20052;-77
2023/02/05 06:15:31;;;;;;;3.15;1.70;;;5.30;96.70;;;;;;4984472;28;20439;-76
2023/02/05 06:17:59;;;;;;;3.72;1.35;;;5.40;96.70;;;;;;4967155;28;20588;-77
2023/02/05 06:20:27;;;;;;;2.75;1.50;;;5.50;96.70;;;;;;4984331;28;20068;-77
2023/02/05 06:22:55;;;;;;;4.10;1.42;;;5.40;96.70;;;;;;4977008;28;20054;-77
2023/02/05 06:25:22;;;;;;;2.58;1.30;;;5.30;96.70;;;;;;4983373;28;20512;-76
2023/02/05 06:27:50;;;;;;;4.32;1.55;;;5.40;96.70;;;;;;4985026;28;20121;-77
2023/02/05 06:30:18;;;;;;;4.10;1.30;;;5.30;96.70;;;;;;4983114;28;20049;-77
2023/02/05 06:32:48;;;;;;;4.32;1.58;;;5.30;96.70;;;;;;4982838;28;20060;-77
2023/02/05 06:35:16;;;;;;;3.55;1.20;;;5.20;96.70;;;;;;4983106;28;20512;-77
2023/02/05 06:37:43;;;;;;;3.03;1.20;;;5.10;96.70;;;;;;4984706;28;20049;-77
2023/02/05 06:40:16;;;;;;;2.63;1.00;;;5.10;96.70;;;;;;4984876;28;20078;-78
2023/02/05 06:42:45;;;;;;;5.03;1.35;;;5.20;96.70;;;;;;4984508;28;20046;-77
2023/02/05 06:45:12;;;;;;;2.08;1.30;;;5.20;96.70;;;;;;4982625;28;20038;-77
2023/02/05 06:47:40;;;;;;;4.10;1.20;;;5.30;96.70;;;;;;4984615;28;20050;-77
2023/02/05 06:50:10;;;;;;;2.83;1.20;;;5.30;96.70;;;;;;4982934;28;20540;-76
2023/02/05 06:52:38;;;;;;;3.60;1.23;;;5.40;96.70;;;;;;4982794;28;20046;-77
2023/02/05 06:55:06;;;;;;;3.40;1.10;;;5.30;96.70;;;;;;4983688;28;20051;-77
2023/02/05 06:57:34;;;;;;;1.92;0.70;;;5.20;96.70;;;;;;4982279;28;20061;-77
2023/02/05 07:00:03;;;;;;;1.88;1.08;;;5.30;96.70;;;;;;4982283;28;20038;-77
2023/02/05 07:02:31;;;;;;;4.93;0.85;;;5.40;96.70;;;;;;4976015;28;20086;-78
2023/02/05 07:04:59;;;;;;;4.75;1.67;;;5.40;96.70;;;;;;4973001;28;20054;-77
2023/02/05 07:07:28;;;;;;;5.22;2.40;;;5.40;96.70;;;;;;4980287;28;20117;-73
2023/02/05 07:09:56;;;;;;;8.90;5.07;;;5.40;96.70;;;;;;4982075;28;20045;-73
2023/02/05 07:12:24;;;;;;;6.38;4.05;;;5.40;96.70;;;;;;4975102;28;20464;-73
2023/02/05 07:14:51;;;;;;;5.15;2.78;;;5.40;96.70;;;;;;4968990;28;20046;-73
2023/02/05 07:17:19;;;;;;;5.25;2.13;;;5.40;96.70;;;;;;4970573;28;20035;-73
2023/02/05 07:19:47;;;;;;;3.25;2.00;;;5.50;96.70;;;;;;4973172;28;20038;-73
2023/02/05 07:22:15;;;;;;;3.63;1.90;;;5.60;96.70;;;;;;4973477;28;20418;-73
2023/02/05 07:24:45;;;;;;;3.40;1.75;;;5.50;96.70;;;;;;4972720;28;20046;-73
2023/02/05 07:27:12;;;;;;;3.65;2.08;;;5.60;96.70;;;;;;4971651;28;20042;-73
2023/02/05 07:29:40;;;;;;;4.68;2.22;;;5.60;96.70;;;;;;4971781;28;20042;-73
2023/02/05 07:32:08;;;;;;;5.00;2.20;;;5.60;96.70;;;;;;4971425;28;20138;-73
2023/02/05 07:34:36;;;;;;;4.95;2.83;;;5.60;96.70;;;;;;4976607;28;20035;-73
2023/02/05 07:37:04;;;;;;;4.13;2.13;;;5.60;96.70;;;;;;4972345;28;20097;-73
2023/02/05 07:39:32;;;;;;;2.42;1.50;;;5.60;96.70;;;;;;4971347;28;20141;-73
2023/02/05 07:42:01;;;;;;;4.03;1.95;;;5.60;96.70;;;;;;4981458;28;20082;-73
2023/02/05 07:44:37;;;;;;;4.10;2.20;;;5.70;96.70;;;;;;4980608;28;20046;-73
2023/02/05 07:47:05;;;;;;;5.43;1.77;;;5.80;96.70;;;;;;4969473;28;20113;-74
2023/02/05 07:49:33;;;;;;;4.20;2.05;;;5.80;96.70;;;;;;4975026;28;20448;-73
2023/02/05 07:52:00;;;;;;;3.13;1.73;;;5.80;96.70;;;;;;4976538;28;20049;-73
2023/02/05 07:54:28;;;;;;;4.03;1.88;;;5.80;96.70;;;;;;4970796;28;20409;-74
2023/02/05 07:56:58;;;;;;;4.05;2.10;;;5.90;96.70;;;;;;4969377;28;20034;-73
2023/02/05 07:59:28;;;;;;;6.03;3.50;;;6.00;96.70;;;;;;4968258;28;20514;-73
2023/02/05 08:01:56;;;;;;;3.60;2.00;;;6.00;96.70;;;;;;4971051;28;20885;-74
2023/02/05 08:04:24;;;;;;;4.63;3.03;;;6.00;96.70;;;;;;4972865;28;20575;-73
2023/02/05 08:06:52;;;;;;;3.85;2.55;;;6.00;96.70;;;;;;4980852;28;20065;-73
2023/02/05 08:09:20;;;;;;;3.88;2.55;;;6.00;96.70;;;;;;4970844;28;20180;-73
2023/02/05 08:11:47;;;;;;;8.02;3.78;;;6.10;96.70;;;;;;4972492;28;20042;-74
2023/02/05 08:14:15;;;;;;;4.72;2.85;;;6.20;96.70;;;;;;4975987;28;20512;-73
2023/02/05 08:16:44;;;;;;;4.05;2.47;;;6.20;96.70;;;;;;4981371;28;20416;-77
2023/02/05 08:19:14;;;;;;;4.53;2.28;;;6.30;96.70;;;;;;4982205;28;20100;-76
2023/02/05 08:21:42;;;;;;;4.28;2.72;;;6.30;96.70;;;;;;4975830;28;20050;-77
2023/02/05 08:24:10;;;;;;;6.97;3.22;;;6.40;96.70;;;;;;4976205;28;20042;-76
2023/02/05 08:26:39;;;;;;;4.97;2.80;;;6.50;96.70;;;;;;4981009;28;20136;-77
2023/02/05 08:29:29;;;;;;;4.78;2.58;;;6.60;96.70;;;;;;4980883;28;20070;-77
2023/02/05 08:31:59;;;;;;;5.00;2.53;;;6.60;96.70;;;;;;4985104;28;20658;-78
2023/02/05 08:34:28;;;;;;;3.50;2.13;;;6.70;96.70;;;;;;4983070;28;20411;-77
2023/02/05 08:36:56;;;;;;;6.07;2.83;;;6.70;96.70;;;;;;4985430;28;20042;-77
2023/02/05 08:39:25;;;;;;;3.28;2.22;;;6.80;96.70;;;;;;4979637;28;20046;-77
2023/02/05 08:41:53;;;;;;;6.00;2.25;;;6.90;96.70;;;;;;4983473;28;20053;-78
2023/02/05 08:44:23;;;;;;;4.10;2.10;;;6.90;96.70;;;;;;4983388;28;20512;-77
2023/02/05 08:46:52;;;;;;;4.85;2.25;;;7.00;96.70;;;;;;4978731;28;20054;-78
2023/02/05 08:49:21;;;;;;;5.20;2.70;;;7.10;96.70;;;;;;4979874;28;20416;-76
2023/02/05 08:51:49;;;;;;;4.82;2.38;;;7.10;96.70;;;;;;4986725;28;20445;-75
2023/02/05 08:54:18;;;;;;;4.15;2.47;;;7.10;96.70;;;;;;4985359;28;20432;-76
2023/02/05 08:56:48;;;;;;;6.15;2.60;;;7.20;96.70;;;;;;4985398;28;20101;-77
2023/02/05 08:59:17;;;;;;;5.63;2.55;;;7.30;96.70;;;;;;4984291;28;20050;-79
2023/02/05 09:01:45;;;;;;;6.22;2.92;;;7.30;96.70;;;;;;4986357;28;20058;-77
2023/02/05 09:04:14;;;;;;;7.30;3.55;;;7.30;96.70;;;;;;4977313;28;20489;-77
2023/02/05 09:06:44;;;;;;;6.03;2.70;;;7.30;96.70;;;;;;4980679;28;20053;-77
2023/02/05 09:09:12;;;;;;;7.95;3.40;;;7.50;96.70;;;;;;4986532;28;20863;-81
2023/02/05 09:11:40;;;;;;;5.15;3.10;;;7.50;96.70;;;;;;4984633;28;20044;-78
2023/02/05 09:14:09;;;;;;;6.50;3.25;;;7.60;96.70;;;;;;4968966;28;20539;-79
2023/02/05 09:16:40;;;;;;;6.47;3.25;;;7.70;96.70;;;;;;4981561;28;21286;-79
2023/02/05 09:19:09;;;;;;;6.75;3.17;;;7.80;96.70;;;;;;4982197;28;20169;-80
2023/02/05 09:21:37;;;;;;;6.05;3.25;;;7.90;96.70;;;;;;4984312;28;20065;-79
2023/02/05 09:24:06;;;;;;;6.65;3.20;;;8.00;96.70;;;;;;4986962;28;20050;-79
2023/02/05 09:26:34;;;;;;;6.97;3.40;;;8.20;96.70;;;;;;4985254;28;20137;-80
2023/02/05 09:29:02;;;;;;;5.40;2.90;;;8.30;96.70;;;;;;4969616;28;20504;-79
2023/02/05 09:31:30;;;;;;;6.60;3.30;;;8.50;96.70;;;;;;4985645;28;20788;-80
2023/02/05 09:34:00;;;;;;;6.18;2.63;;;8.60;96.70;;;;;;4987411;28;20061;-80
2023/02/05 09:36:28;;;;;;;4.72;3.05;;;8.70;96.70;;;;;;4987738;28;20046;-79
2023/02/05 09:39:01;;;;;;;3.67;1.92;;;8.70;96.70;;;;;;4988701;28;20222;-82
2023/02/05 09:41:53;;;;;;;5.45;2.13;;;8.90;96.70;;;;;;4988379;28;20053;-84
2023/02/05 09:44:32;;;;;;;5.75;2.10;;;9.00;96.70;;;;;;4972534;28;20144;-79
2023/02/05 09:47:06;;;;;;;4.22;1.83;;;9.10;96.70;;;;;;4989123;28;20396;-82
2023/02/05 09:49:42;;;;;;;3.25;1.15;;;9.20;96.70;;;;;;4988555;28;20102;-84
2023/02/05 09:52:17;;;;;;;2.58;0.90;;;9.30;96.70;;;;;;4985028;28;20069;-74
2023/02/05 09:54:50;;;;;;;6.65;1.60;;;9.40;96.70;;;;;;4977426;28;20042;-74
2023/02/05 09:57:31;;;;;;;2.92;1.30;;;9.60;96.70;;;;;;4984307;28;20042;-77
2023/02/05 09:59:59;;;;;;;1.80;0.73;;;9.70;96.70;;;;;;4979408;28;20505;-74
2023/02/05 10:02:35;;;;;;;3.47;0.73;;;9.90;96.70;;;;;;4983521;28;20038;-72
2023/02/05 10:05:12;;;;;;;2.33;0.63;;;9.90;96.70;;;;;;4980830;28;20412;-72
2023/02/05 10:07:49;;;;;;;3.47;0.75;;;10.00;96.70;;;;;;4984200;28;20066;-73
2023/02/05 10:10:25;;;;;;;2.60;0.80;;;10.10;96.70;;;;;;4984679;28;20587;-73
2023/02/05 10:13:17;;;;;;;;;;;10.20;96.70;;;;;;4967514;28;20423;-74
2023/02/05 10:16:03;;;;;;;2.95;1.17;;;10.20;96.70;;;;;;4980669;28;20372;-74
2023/02/05 10:18:41;;;;;;;3.10;1.10;;;10.40;96.70;;;;;;4973811;28;20059;-73
2023/02/05 10:21:24;;;;;;;3.78;1.05;;;10.50;96.70;;;;;;4979097;28;20376;-77
2023/02/05 10:24:13;;;;;;;3.00;0.95;;;10.60;96.70;;;;;;4978168;28;20136;-74
2023/02/05 10:26:47;;;;;;;2.55;1.40;;;10.60;96.70;;;;;;4977062;28;20046;-74
2023/02/05 10:29:32;;;;;;;2.40;1.17;;;10.80;96.70;;;;;;4980002;28;20571;-73
2023/02/05 10:32:14;;;;;;;3.45;1.10;;;10.80;96.70;;;;;;4983198;28;20042;-75
2023/02/05 10:35:01;;;;;;;3.42;1.30;;;11.00;96.70;;;;;;4979092;28;20134;-74
2023/02/05 10:37:38;;;;;;;3.25;1.15;;;11.00;96.70;;;;;;4979300;28;20466;-75
2023/02/05 10:40:13;;;;;;;3.78;1.48;;;11.10;96.70;;;;;;4979933;28;20978;-74
2023/02/05 10:42:45;;;;;;;3.90;1.77;;;11.20;96.70;;;;;;4981061;28;20453;-74
2023/02/05 10:45:20;;;;;;;2.75;1.55;;;11.30;96.70;;;;;;4981341;28;20047;-74
2023/02/05 10:47:58;;;;;;;4.65;2.05;;;11.40;96.70;;;;;;4983297;28;20049;-74
2023/02/05 10:50:32;;;;;;;6.45;1.23;;;11.50;96.70;;;;;;4981769;28;20440;-74
2023/02/05 10:53:01;;;;;;;4.05;1.70;;;11.50;96.70;;;;;;4982748;28;20508;-74
2023/02/05 10:55:29;;;;;;;3.63;1.60;;;11.60;96.70;;;;;;4984004;28;20053;-75
2023/02/05 10:57:59;;;;;;;3.15;1.60;;;11.70;96.70;;;;;;4982789;28;20046;-74
2023/02/05 11:00:29;;;;;;;4.53;1.50;;;11.70;96.70;;;;;;4982339;28;20054;-74
2023/02/05 11:02:58;;;;;;;4.45;1.80;;;11.80;96.70;;;;;;4982449;28;20132;-75
2023/02/05 11:05:35;;;;;;;3.38;1.20;;;11.80;96.70;;;;;;4982832;28;20074;-75
2023/02/05 11:08:04;;;;;;;3.13;1.27;;;11.90;96.70;;;;;;4983675;28;20058;-75
2023/02/05 11:10:34;;;;;;;3.30;1.38;;;12.00;96.70;;;;;;4983480;28;20057;-74
2023/02/05 11:13:14;;;;;;;3.17;1.20;;;12.10;96.70;;;;;;4974930;28;20112;-75
2023/02/05 11:15:56;;;;;;;2.92;1.20;;;12.10;96.70;;;;;;4998393;28;20080;-75
2023/02/05 11:18:27;;;;;;;3.20;1.40;;;12.10;96.70;;;;;;4982434;28;20048;-74
2023/02/05 11:20:57;;;;;;;3.60;2.05;;;12.20;96.70;;;;;;4976296;28;20035;-75
2023/02/05 11:23:28;;;;;;;4.20;1.27;;;12.30;96.70;;;;;;4983711;28;20046;-75
2023/02/05 11:25:58;;;;;;;5.63;1.90;;;12.40;96.70;;;;;;4983109;28;20170;-74
2023/02/05 11:28:28;;;;;;;5.05;3.30;;;12.40;96.70;;;;;;4982185;28;20050;-75
2023/02/05 11:31:19;;;;;;;5.78;3.03;;;12.50;96.70;;;;;;4983039;28;20413;-74
2023/02/05 11:33:47;;;;;;;5.70;2.10;;;12.60;96.70;;;;;;4982834;28;20548;-75
2023/02/05 11:36:20;;;;;;;3.47;1.88;;;12.70;96.70;;;;;;4982641;28;20046;-75
2023/02/05 11:38:50;;;;;;;4.65;2.28;;;12.70;96.70;;;;;;4982449;28;20500;-74
2023/02/05 11:41:30;;;;;;;3.13;1.20;;;12.80;96.70;;;;;;4981928;28;20082;-74
2023/02/05 11:43:59;;;;;;;3.13;1.77;;;12.90;96.70;;;;;;4983664;28;20050;-74
2023/02/05 11:46:43;;;;;;;4.93;1.70;;;13.00;96.70;;;;;;4983345;28;20130;-75
2023/02/05 11:49:20;;;;;;;3.85;1.67;;;13.10;96.70;;;;;;4982924;28;20073;-75
2023/02/05 11:51:50;;;;;;;;;;;13.20;96.70;;;;;;4984124;28;20042;-74
2023/02/05 11:54:21;;;;;;;4.93;2.30;;;13.30;96.70;;;;;;4985625;28;20576;-75
2023/02/05 11:57:00;;;;;;;5.13;2.20;;;13.30;96.70;;;;;;4987080;28;20054;-75
2023/02/05 11:59:28;;;;;;;3.58;1.50;;;13.40;96.70;;;;;;4986008;28;20513;-75
2023/02/05 12:02:24;;;;;;;3.17;1.45;;;13.40;96.70;;;;;;4968999;28;20046;-74
2023/02/05 12:04:57;;;;;;;2.47;1.33;;;13.50;96.70;;;;;;4986712;28;21084;-75
2023/02/05 12:07:28;;;;;;;3.13;1.38;;;13.60;96.70;;;;;;4985702;28;20086;-75
2023/02/05 12:09:58;;;;;;;4.78;1.30;;;13.60;96.70;;;;;;4986782;28;20536;-80
2023/02/05 12:12:32;;;;;;;3.58;1.95;;;13.60;96.70;;;;;;4988496;28;20050;-78
2023/02/05 12:15:09;;;;;;;3.97;1.50;;;13.70;96.70;;;;;;4988127;28;20492;-79
2023/02/05 12:17:47;;;;;;;3.38;2.00;;;13.90;96.70;;;;;;4987152;28;20051;-79
2023/02/05 12:20:23;;;;;;;3.05;1.40;;;13.90;96.70;;;;;;4979443;28;20105;-78
2023/02/05 12:23:26;;;;;;;3.17;1.30;;;14.00;96.70;;;;;;4987114;28;20046;-80
2023/02/05 12:26:23;;;;;;;3.53;1.60;;;14.10;96.70;;;;;;4979591;28;20042;-79
2023/02/05 12:29:03;;;;;;;3.87;1.60;;;14.20;96.70;;;;;;4985803;28;20492;-80
2023/02/05 12:31:44;;;;;;;3.25;1.70;;;14.30;96.70;;;;;;4983816;28;20120;-80
2023/02/05 12:34:23;;;;;;;4.85;1.98;;;14.40;96.70;;;;;;4987087;28;20145;-79
2023/02/05 12:37:07;;;;;;;4.30;2.80;;;14.40;96.70;;;;;;4986565;28;20057;-80
2023/02/05 12:39:45;;;;;;;4.13;2.25;;;14.50;96.70;;;;;;4986726;28;20066;-79
2023/02/05 12:42:28;;;;;;;4.20;1.70;;;14.60;96.70;;;;;;4988337;28;20050;-80
2023/02/05 12:45:11;;;;;;;4.03;1.98;;;14.70;96.70;;;;;;4987014;28;20050;-79
2023/02/05 12:47:54;;;;;;;3.72;2.10;;;14.70;96.70;;;;;;4981619;28;20409;-79
2023/02/05 12:50:58;;;;;;;5.10;2.95;;;14.80;96.70;;;;;;4986835;28;20046;-78
2023/02/05 12:53:42;;;;;;;5.05;1.70;;;14.80;96.70;;;;;;4986969;28;20050;-80
2023/02/05 12:56:28;;;;;;;5.03;1.90;;;14.80;96.70;;;;;;4986946;28;20132;-80
2023/02/05 12:59:02;;;;;;;5.05;2.25;;;14.90;96.70;;;;;;4987032;28;20054;-80
2023/02/05 13:01:39;;;;;;;4.47;2.50;;;15.00;96.70;;;;;;4986306;28;20050;-81
2023/02/05 13:04:20;;;;;;;3.20;1.85;;;15.00;96.70;;;;;;4986972;28;20058;-79
2023/02/05 13:06:59;;;;;;;3.35;1.45;;;15.10;96.70;;;;;;4980111;28;20129;-80
2023/02/05 13:09:32;;;;;;;3.80;1.63;;;15.20;96.70;;;;;;4986546;28;20460;-80
2023/02/05 13:12:07;;;;;;;4.85;1.60;;;15.20;96.70;;;;;;4986280;28;20050;-79
2023/02/05 13:14:41;;;;;;;3.58;2.17;;;15.10;96.70;;;;;;4969383;28;20054;-81
2023/02/05 13:17:14;;;;;;;4.50;2.10;;;15.10;96.70;;;;;;4987815;28;20043;-80
2023/02/05 13:19:57;;;;;;;4.38;1.90;;;15.10;96.70;;;;;;4968592;28;20457;-80
2023/02/05 13:28:39;;;;;;;4.10;1.80;;;15.10;96.70;;;;;;4987237;28;20378;-77